sensor_id;sensor_type;location;lat;lon;timestamp;pressure;altitude;pressure_sealevel;temperature;humidity
59315;BME280;46521;50.160;20.802;2023-11-19T00:06:21;100311.25;;;1.88;81.20
59315;BME280;46521;50.160;20.802;2023-11-19T00:16:23;100304.16;;;1.90;80.94
59315;BME280;46521;50.160;20.802;2023-11-19T00:26:24;100290.28;;;1.90;80.58
59315;BME280;46521;50.160;20.802;2023-11-19T00:36:26;100293.17;;;1.85;80.69
59315;BME280;46521;50.160;20.802;2023-11-19T00:46:27;100279.47;;;1.82;81.00
59315;BME280;46521;50.160;20.802;2023-11-19T00:56:28;100279.85;;;1.75;80.86
59315;BME280;46521;50.160;20.802;2023-11-19T01:06:31;100256.09;;;1.80;81.07
59315;BME280;46521;50.160;20.802;2023-11-19T01:16:32;100243.43;;;1.88;81.44
59315;BME280;46521;50.160;20.802;2023-11-19T01:26:34;100204.24;;;2.03;81.09
59315;BME280;46521;50.160;20.802;2023-11-19T01:36:36;100202.36;;;2.05;81.04
59315;BME280;46521;50.160;20.802;2023-11-19T01:46:37;100184.63;;;2.10;81.33
59315;BME280;46521;50.160;20.802;2023-11-19T01:56:41;100188.19;;;2.09;80.14
59315;BME280;46521;50.160;20.802;2023-11-19T02:06:43;100172.33;;;2.12;80.78
59315;BME280;46521;50.160;20.802;2023-11-19T02:16:45;100149.35;;;2.04;80.63
59315;BME280;46521;50.160;20.802;2023-11-19T02:26:52;100147.05;;;2.00;80.15
59315;BME280;46521;50.160;20.802;2023-11-19T02:36:58;100141.83;;;2.00;80.21
59315;BME280;46521;50.160;20.802;2023-11-19T02:46:59;100103.63;;;1.98;80.47
59315;BME280;46521;50.160;20.802;2023-11-19T02:57:01;100098.20;;;2.02;80.25
59315;BME280;46521;50.160;20.802;2023-11-19T03:07:03;100105.10;;;2.03;79.70
59315;BME280;46521;50.160;20.802;2023-11-19T03:17:04;100071.08;;;2.04;79.88
59315;BME280;46521;50.160;20.802;2023-11-19T03:27:06;100045.41;;;1.98;80.02
59315;BME280;46521;50.160;20.802;2023-11-19T03:37:07;100029.95;;;1.95;80.26
59315;BME280;46521;50.160;20.802;2023-11-19T03:47:09;100009.30;;;1.92;80.15
59315;BME280;46521;50.160;20.802;2023-11-19T03:57:12;100009.30;;;1.92;80.57
59315;BME280;46521;50.160;20.802;2023-11-19T04:07:14;100008.27;;;1.94;80.66
59315;BME280;46521;50.160;20.802;2023-11-19T04:17:16;99960.67;;;1.91;80.61
59315;BME280;46521;50.160;20.802;2023-11-19T04:27:18;99961.19;;;1.83;80.49
59315;BME280;46521;50.160;20.802;2023-11-19T04:37:19;99962.15;;;1.82;80.42
59315;BME280;46521;50.160;20.802;2023-11-19T04:47:21;99927.49;;;1.80;80.40
59315;BME280;46521;50.160;20.802;2023-11-19T04:57:22;99896.41;;;1.77;80.76
59315;BME280;46521;50.160;20.802;2023-11-19T05:07:24;99863.47;;;1.76;80.79
59315;BME280;46521;50.160;20.802;2023-11-19T05:17:25;99872.01;;;1.78;80.42
59315;BME280;46521;50.160;20.802;2023-11-19T05:27:27;99859.69;;;1.80;81.09
59315;BME280;46521;50.160;20.802;2023-11-19T05:37:29;99859.69;;;1.80;80.69
59315;BME280;46521;50.160;20.802;2023-11-19T05:47:31;99886.20;;;1.87;81.07
59315;BME280;46521;50.160;20.802;2023-11-19T05:57:32;99867.30;;;1.96;80.40
59315;BME280;46521;50.160;20.802;2023-11-19T06:07:35;99847.75;;;2.02;81.00
59315;BME280;46521;50.160;20.802;2023-11-19T06:17:38;99836.17;;;2.06;80.70
59315;BME280;46521;50.160;20.802;2023-11-19T06:27:40;99843.36;;;2.02;80.79
59315;BME280;46521;50.160;20.802;2023-11-19T06:37:41;99844.44;;;2.00;80.55
59315;BME280;46521;50.160;20.802;2023-11-19T06:47:43;99845.97;;;2.02;80.83
59315;BME280;46521;50.160;20.802;2023-11-19T06:57:44;99839.22;;;2.00;80.92
59315;BME280;46521;50.160;20.802;2023-11-19T07:07:46;99840.75;;;2.02;80.76
59315;BME280;46521;50.160;20.802;2023-11-19T07:17:48;99821.45;;;2.05;80.11
59315;BME280;46521;50.160;20.802;2023-11-19T07:27:51;99780.20;;;2.10;80.50
59315;BME280;46521;50.160;20.802;2023-11-19T07:37:53;99784.66;;;2.21;80.11
59315;BME280;46521;50.160;20.802;2023-11-19T07:47:54;99751.52;;;2.34;80.13
59315;BME280;46521;50.160;20.802;2023-11-19T07:57:55;99753.27;;;2.33;79.35
59315;BME280;46521;50.160;20.802;2023-11-19T08:07:57;99735.63;;;2.37;79.26
59315;BME280;46521;50.160;20.802;2023-11-19T08:17:59;99711.70;;;2.55;79.16
59315;BME280;46521;50.160;20.802;2023-11-19T08:28:01;99717.28;;;2.61;78.16
59315;BME280;46521;50.160;20.802;2023-11-19T08:38:02;99693.09;;;2.70;78.65
59315;BME280;46521;50.160;20.802;2023-11-19T08:48:04;99717.46;;;2.82;78.05
59315;BME280;46521;50.160;20.802;2023-11-19T08:58:05;99696.92;;;2.89;77.62
59315;BME280;46521;50.160;20.802;2023-11-19T09:08:07;99690.52;;;2.93;77.72
59315;BME280;46521;50.160;20.802;2023-11-19T09:18:09;99661.55;;;2.96;78.03
59315;BME280;46521;50.160;20.802;2023-11-19T09:28:11;99673.16;;;3.03;77.48
59315;BME280;46521;50.160;20.802;2023-11-19T09:38:12;99652.27;;;3.03;77.57
59315;BME280;46521;50.160;20.802;2023-11-19T09:48:16;99614.96;;;3.13;77.29
59315;BME280;46521;50.160;20.802;2023-11-19T09:58:19;99560.30;;;3.21;77.33
59315;BME280;46521;50.160;20.802;2023-11-19T10:08:20;99558.77;;;3.18;76.77
59315;BME280;46521;50.160;20.802;2023-11-19T10:18:28;99536.03;;;3.30;76.97
59315;BME280;46521;50.160;20.802;2023-11-19T10:28:39;99535.66;;;3.35;76.64
59315;BME280;46521;50.160;20.802;2023-11-19T10:38:51;99507.16;;;3.32;77.09
59315;BME280;46521;50.160;20.802;2023-11-19T10:48:53;99470.18;;;3.36;76.59
59315;BME280;46521;50.160;20.802;2023-11-19T10:58:55;99474.15;;;3.52;76.46
59315;BME280;46521;50.160;20.802;2023-11-19T11:09:00;99446.77;;;3.77;76.31
59315;BME280;46521;50.160;20.802;2023-11-19T11:19:02;99430.17;;;3.88;75.61
59315;BME280;46521;50.160;20.802;2023-11-19T11:39:15;99392.01;;;3.85;75.69
59315;BME280;46521;50.160;20.802;2023-11-19T11:49:25;99374.15;;;3.90;75.67
59315;BME280;46521;50.160;20.802;2023-11-19T11:59:36;99343.02;;;3.87;75.75
59315;BME280;46521;50.160;20.802;2023-11-19T12:09:42;99328.93;;;3.78;75.89
59315;BME280;46521;50.160;20.802;2023-11-19T12:19:45;99322.56;;;3.71;75.74
59315;BME280;46521;50.160;20.802;2023-11-19T12:29:47;99309.59;;;3.60;76.20
59315;BME280;46521;50.160;20.802;2023-11-19T12:39:49;99292.52;;;3.56;76.06
59315;BME280;46521;50.160;20.802;2023-11-19T12:49:59;99290.86;;;3.55;76.14
59315;BME280;46521;50.160;20.802;2023-11-19T13:00:01;99270.20;;;3.52;75.79
59315;BME280;46521;50.160;20.802;2023-11-19T13:10:03;99266.28;;;3.36;76.25
59315;BME280;46521;50.160;20.802;2023-11-19T13:20:05;99252.76;;;3.21;76.25
59315;BME280;46521;50.160;20.802;2023-11-19T13:30:08;99251.83;;;3.01;76.75
59315;BME280;46521;50.160;20.802;2023-11-19T13:40:10;99236.36;;;2.67;77.11
59315;BME280;46521;50.160;20.802;2023-11-19T13:50:18;99221.59;;;2.36;77.48
59315;BME280;46521;50.160;20.802;2023-11-19T14:00:19;99223.34;;;2.14;77.69
59315;BME280;46521;50.160;20.802;2023-11-19T14:10:23;99216.25;;;2.05;78.15
59315;BME280;46521;50.160;20.802;2023-11-19T14:20:24;99210.84;;;1.96;78.26
59315;BME280;46521;50.160;20.802;2023-11-19T14:30:26;99192.88;;;1.82;78.37
59315;BME280;46521;50.160;20.802;2023-11-19T14:40:28;99184.81;;;1.74;78.69
59315;BME280;46521;50.160;20.802;2023-11-19T14:50:29;99195.40;;;1.61;78.21
59315;BME280;46521;50.160;20.802;2023-11-19T15:00:31;99185.82;;;1.50;78.67
59315;BME280;46521;50.160;20.802;2023-11-19T15:10:32;99167.13;;;1.45;78.97
59315;BME280;46521;50.160;20.802;2023-11-19T15:20:34;99143.09;;;1.41;78.48
59315;BME280;46521;50.160;20.802;2023-11-19T15:30:35;99130.55;;;1.35;79.04
59315;BME280;46521;50.160;20.802;2023-11-19T15:40:37;99130.22;;;1.29;79.24
59315;BME280;46521;50.160;20.802;2023-11-19T15:50:39;99120.05;;;1.25;79.43
59315;BME280;46521;50.160;20.802;2023-11-19T16:00:40;99104.41;;;1.25;79.48
59315;BME280;46521;50.160;20.802;2023-11-19T16:10:47;99100.59;;;1.30;79.47
59315;BME280;46521;50.160;20.802;2023-11-19T16:20:50;99102.02;;;1.34;79.75
59315;BME280;46521;50.160;20.802;2023-11-19T16:30:51;99093.23;;;1.35;79.93
59315;BME280;46521;50.160;20.802;2023-11-19T16:40:53;99072.14;;;1.38;79.97
59315;BME280;46521;50.160;20.802;2023-11-19T16:50:55;99070.02;;;1.43;80.76
59315;BME280;46521;50.160;20.802;2023-11-19T17:00:56;99054.58;;;1.51;80.64
59315;BME280;46521;50.160;20.802;2023-11-19T17:11:03;99053.83;;;1.60;80.83
59315;BME280;46521;50.160;20.802;2023-11-19T17:21:06;99045.51;;;1.67;80.63
59315;BME280;46521;50.160;20.802;2023-11-19T17:31:08;99029.36;;;1.73;80.90
59315;BME280;46521;50.160;20.802;2023-11-19T17:41:09;99021.29;;;1.76;80.93
59315;BME280;46521;50.160;20.802;2023-11-19T17:51:11;99011.73;;;1.86;81.17
59315;BME280;46521;50.160;20.802;2023-11-19T18:01:16;99003.78;;;1.88;81.87
59315;BME280;46521;50.160;20.802;2023-11-19T18:11:17;98992.97;;;1.92;81.97
59315;BME280;46521;50.160;20.802;2023-11-19T18:21:21;98997.41;;;2.02;82.18
59315;BME280;46521;50.160;20.802;2023-11-19T18:31:23;98992.23;;;2.11;82.23
59315;BME280;46521;50.160;20.802;2023-11-19T18:41:25;98981.53;;;2.14;81.95
59315;BME280;46521;50.160;20.802;2023-11-19T18:51:27;98968.63;;;2.13;82.57
59315;BME280;46521;50.160;20.802;2023-11-19T19:01:28;98973.06;;;2.22;83.09
59315;BME280;46521;50.160;20.802;2023-11-19T19:11:32;98962.09;;;2.28;83.19
59315;BME280;46521;50.160;20.802;2023-11-19T19:21:34;98966.53;;;2.38;83.29
59315;BME280;46521;50.160;20.802;2023-11-19T19:31:35;98959.70;;;2.46;83.82
59315;BME280;46521;50.160;20.802;2023-11-19T19:41:37;98961.20;;;2.49;83.57
59315;BME280;46521;50.160;20.802;2023-11-19T19:51:39;98960.12;;;2.51;84.01
59315;BME280;46521;50.160;20.802;2023-11-19T20:01:40;98960.27;;;2.60;84.19
59315;BME280;46521;50.160;20.802;2023-11-19T20:11:42;98955.63;;;2.63;84.01
59315;BME280;46521;50.160;20.802;2023-11-19T20:21:44;98954.51;;;2.66;83.75
59315;BME280;46521;50.160;20.802;2023-11-19T20:31:46;98944.88;;;2.66;84.37
59315;BME280;46521;50.160;20.802;2023-11-19T20:41:49;98933.76;;;2.64;83.97
59315;BME280;46521;50.160;20.802;2023-11-19T20:51:50;98939.91;;;2.53;83.94
59315;BME280;46521;50.160;20.802;2023-11-19T21:01:52;98941.30;;;2.48;83.99
59315;BME280;46521;50.160;20.802;2023-11-19T21:11:53;98941.30;;;2.48;84.75
59315;BME280;46521;50.160;20.802;2023-11-19T21:21:55;98941.56;;;2.45;84.77
59315;BME280;46521;50.160;20.802;2023-11-19T21:31:56;98941.16;;;2.49;85.37
59315;BME280;46521;50.160;20.802;2023-11-19T21:41:58;98942.00;;;2.69;85.53
59315;BME280;46521;50.160;20.802;2023-11-19T21:51:59;98945.19;;;2.83;86.21
59315;BME280;46521;50.160;20.802;2023-11-19T22:02:01;98953.16;;;2.91;86.21
59315;BME280;46521;50.160;20.802;2023-11-19T22:12:03;98935.73;;;3.01;85.80
59315;BME280;46521;50.160;20.802;2023-11-19T22:22:04;98942.47;;;3.14;86.48
59315;BME280;46521;50.160;20.802;2023-11-19T22:32:06;98928.02;;;3.29;86.30
59315;BME280;46521;50.160;20.802;2023-11-19T22:42:07;98927.86;;;3.40;86.93
59315;BME280;46521;50.160;20.802;2023-11-19T22:52:09;98919.58;;;3.55;87.60
59315;BME280;46521;50.160;20.802;2023-11-19T23:02:11;98925.31;;;3.68;87.15
59315;BME280;46521;50.160;20.802;2023-11-19T23:12:13;98913.42;;;3.84;87.92
59315;BME280;46521;50.160;20.802;2023-11-19T23:22:17;98910.05;;;4.01;88.03
59315;BME280;46521;50.160;20.802;2023-11-19T23:32:18;98909.98;;;4.21;88.13
59315;BME280;46521;50.160;20.802;2023-11-19T23:42:20;98915.39;;;4.37;88.18
59315;BME280;46521;50.160;20.802;2023-11-19T23:52:21;98921.70;;;4.44;87.85
